createdAt,value
2018-06-20T00:00:11.799Z,99.90
2018-06-20T00:02:40.363Z,99.90
2018-06-20T00:05:08.854Z,99.90
2018-06-20T00:07:37.493Z,99.90
2018-06-20T00:10:06.076Z,99.90
2018-06-20T00:12:34.871Z,99.90
2018-06-20T00:15:03.459Z,99.90
2018-06-20T00:17:31.998Z,99.90
2018-06-20T00:20:00.432Z,99.90
2018-06-20T00:22:28.793Z,99.90
2018-06-20T00:24:57.100Z,99.90
2018-06-20T00:27:25.441Z,99.90
2018-06-20T00:29:53.863Z,99.90
2018-06-20T00:32:22.175Z,99.90
2018-06-20T00:34:50.525Z,99.90
2018-06-20T00:37:18.852Z,99.90
2018-06-20T00:39:47.251Z,99.90
2018-06-20T00:42:15.760Z,99.90
2018-06-20T00:44:44.080Z,99.90
2018-06-20T00:47:12.455Z,99.90
2018-06-20T00:49:40.817Z,99.90
2018-06-20T00:52:09.153Z,99.90
2018-06-20T00:54:37.477Z,99.90
2018-06-20T00:57:05.845Z,99.90
2018-06-20T00:59:34.227Z,99.90
2018-06-20T01:02:02.587Z,99.90
2018-06-20T01:04:31.019Z,99.90
2018-06-20T01:06:59.378Z,99.90
2018-06-20T01:09:28.356Z,99.90
2018-06-20T01:11:56.851Z,99.90
2018-06-20T01:14:25.106Z,99.90
2018-06-20T01:16:53.815Z,99.90
2018-06-20T01:19:22.145Z,99.90
2018-06-20T01:21:50.505Z,99.90
2018-06-20T01:24:18.819Z,99.90
2018-06-20T01:26:47.292Z,99.90
2018-06-20T01:29:15.620Z,99.90
2018-06-20T01:31:43.914Z,99.90
2018-06-20T01:34:12.238Z,99.90
2018-06-20T01:36:40.577Z,99.90
2018-06-20T01:39:10.418Z,99.90
2018-06-20T01:41:38.777Z,99.90
2018-06-20T01:44:07.087Z,99.90
2018-06-20T01:46:35.401Z,99.90
2018-06-20T01:49:03.711Z,99.90
2018-06-20T01:51:32.026Z,99.90
2018-06-20T01:54:00.329Z,99.90
2018-06-20T01:56:28.625Z,99.90
2018-06-20T01:58:56.901Z,99.90
2018-06-20T02:01:25.173Z,99.90
2018-06-20T02:03:53.498Z,99.90
2018-06-20T02:06:21.789Z,99.90
2018-06-20T02:08:54.298Z,99.90
2018-06-20T02:11:22.603Z,99.90
2018-06-20T02:13:50.904Z,99.90
2018-06-20T02:16:19.195Z,99.90
2018-06-20T02:18:47.486Z,99.90
2018-06-20T02:21:15.807Z,99.90
2018-06-20T02:26:12.277Z,99.90
2018-06-20T02:28:40.567Z,99.90
2018-06-20T02:31:09.007Z,99.90
2018-06-20T02:33:37.625Z,99.90
2018-06-20T02:36:11.293Z,99.90
2018-06-20T02:38:39.585Z,99.90
2018-06-20T02:41:07.969Z,99.90
2018-06-20T02:43:36.265Z,99.90
2018-06-20T02:46:04.626Z,99.90
2018-06-20T02:48:32.945Z,99.90
2018-06-20T02:51:01.221Z,99.90
2018-06-20T02:53:29.501Z,99.90
2018-06-20T02:55:57.837Z,99.90
2018-06-20T02:58:26.133Z,99.90
2018-06-20T03:00:54.464Z,99.90
2018-06-20T03:03:22.749Z,99.90
2018-06-20T03:05:51.049Z,99.90
2018-06-20T03:08:19.329Z,99.90
2018-06-20T03:10:47.649Z,99.90
2018-06-20T03:13:16.045Z,99.90
2018-06-20T03:15:44.341Z,99.90
2018-06-20T03:18:12.630Z,99.90
2018-06-20T03:20:40.910Z,99.90
2018-06-20T03:23:09.185Z,99.90
2018-06-20T03:25:37.477Z,99.90
2018-06-20T03:28:05.793Z,99.90
2018-06-20T03:30:34.129Z,99.90
2018-06-20T03:33:02.394Z,99.90
2018-06-20T03:35:30.710Z,99.90
2018-06-20T03:37:59.065Z,99.90
2018-06-20T03:40:27.543Z,99.90
2018-06-20T03:42:55.843Z,99.90
2018-06-20T03:45:24.133Z,99.90
2018-06-20T03:47:52.441Z,99.90
2018-06-20T03:50:20.768Z,99.90
2018-06-20T03:52:49.060Z,99.90
2018-06-20T03:55:17.350Z,99.90
2018-06-20T03:57:45.670Z,99.90
2018-06-20T04:00:13.982Z,99.90
2018-06-20T04:02:42.979Z,99.90
2018-06-20T04:05:11.300Z,99.90
2018-06-20T04:07:39.655Z,99.90
2018-06-20T04:10:08.611Z,99.90
2018-06-20T04:12:36.922Z,99.90
2018-06-20T04:15:05.436Z,99.90
2018-06-20T04:17:33.761Z,99.90
2018-06-20T04:20:02.045Z,99.90
2018-06-20T04:22:30.367Z,99.90
2018-06-20T04:24:58.684Z,99.90
2018-06-20T04:29:54.998Z,99.90
2018-06-20T04:32:23.300Z,99.90
2018-06-20T04:34:51.655Z,99.90
2018-06-20T04:37:19.933Z,99.90
2018-06-20T04:39:48.328Z,99.90
2018-06-20T04:42:16.603Z,99.90
2018-06-20T04:44:45.162Z,99.90
2018-06-20T04:47:13.469Z,99.90
2018-06-20T04:49:41.793Z,99.90
2018-06-20T04:52:10.108Z,99.90
2018-06-20T04:54:38.390Z,99.90
2018-06-20T04:57:06.701Z,99.90
2018-06-20T04:59:35.016Z,99.90
2018-06-20T05:02:03.437Z,99.90
2018-06-20T05:04:31.729Z,99.90
2018-06-20T05:07:00.082Z,99.90
2018-06-20T05:09:28.447Z,99.90
2018-06-20T05:11:56.754Z,99.90
2018-06-20T05:14:25.059Z,99.90
2018-06-20T05:16:53.402Z,99.90
2018-06-20T05:19:21.720Z,99.90
2018-06-20T05:21:50.045Z,99.90
2018-06-20T05:24:18.354Z,99.90
2018-06-20T05:26:46.657Z,99.90
2018-06-20T05:29:14.942Z,99.90
2018-06-20T05:31:43.301Z,99.90
2018-06-20T05:34:11.588Z,99.90
2018-06-20T05:36:39.886Z,99.90
2018-06-20T05:39:10.085Z,99.90
2018-06-20T05:41:38.587Z,99.90
2018-06-20T05:44:07.569Z,99.90
2018-06-20T05:46:35.877Z,99.90
2018-06-20T05:49:04.313Z,99.90
2018-06-20T05:51:32.632Z,99.90
2018-06-20T05:54:01.003Z,99.90
2018-06-20T05:56:29.256Z,99.90
2018-06-20T05:58:57.615Z,99.90
2018-06-20T06:01:25.881Z,99.90
2018-06-20T06:03:54.483Z,99.90
2018-06-20T06:06:22.864Z,99.90
2018-06-20T06:08:51.234Z,99.90
2018-06-20T06:11:19.538Z,99.90
2018-06-20T06:13:47.973Z,99.90
2018-06-20T06:16:16.306Z,99.90
2018-06-20T06:18:44.625Z,99.90
2018-06-20T06:21:13.301Z,99.90
2018-06-20T06:23:41.673Z,99.90
2018-06-20T06:26:10.058Z,99.90
2018-06-20T06:28:38.369Z,99.90
2018-06-20T06:31:06.787Z,99.90
2018-06-20T06:33:35.123Z,99.90
2018-06-20T06:36:03.413Z,99.90
2018-06-20T06:38:31.741Z,99.90
2018-06-20T06:41:00.058Z,99.90
2018-06-20T06:43:28.351Z,99.90
2018-06-20T06:45:56.738Z,99.90
2018-06-20T06:50:53.030Z,99.90
2018-06-20T06:53:21.361Z,99.90
2018-06-20T06:55:49.706Z,99.90
2018-06-20T06:58:18.081Z,99.90
2018-06-20T07:00:46.397Z,99.90
2018-06-20T07:03:14.661Z,99.90
2018-06-20T07:05:43.009Z,99.90
2018-06-20T07:08:11.290Z,99.90
2018-06-20T07:10:39.610Z,99.90
2018-06-20T07:13:07.930Z,99.90
2018-06-20T07:15:36.243Z,99.90
2018-06-20T07:18:04.584Z,99.90
2018-06-20T07:20:32.865Z,99.90
2018-06-20T07:23:01.195Z,99.90
2018-06-20T07:25:29.592Z,99.90
2018-06-20T07:27:57.892Z,99.90
2018-06-20T07:30:26.201Z,99.90
2018-06-20T07:32:54.532Z,99.90
2018-06-20T07:35:22.920Z,99.90
2018-06-20T07:37:51.186Z,99.90
2018-06-20T07:40:19.537Z,99.90
2018-06-20T07:42:47.921Z,99.90
2018-06-20T07:45:16.231Z,99.90
2018-06-20T07:47:44.690Z,99.90
2018-06-20T07:50:12.982Z,99.90
2018-06-20T07:52:41.295Z,99.90
2018-06-20T07:55:09.977Z,99.90
2018-06-20T07:57:38.369Z,99.90
2018-06-20T08:00:12.034Z,99.90
2018-06-20T08:02:57.260Z,99.90
2018-06-20T08:05:30.965Z,99.90
2018-06-20T08:08:04.715Z,99.90
2018-06-20T08:10:38.469Z,99.90
2018-06-20T08:13:12.582Z,99.90
2018-06-20T08:15:46.317Z,99.90
2018-06-20T09:19:22.619Z,97.80
2018-06-20T09:22:04.467Z,97.50
2018-06-20T11:51:15.917Z,92.10
2018-06-20T12:30:14.043Z,75.30
2018-06-20T12:32:49.496Z,74.20
2018-06-20T12:35:31.485Z,75.90
2018-06-20T12:38:05.421Z,74.60
2018-06-20T12:40:39.456Z,74.60
2018-06-20T12:43:14.210Z,74.00
2018-06-20T12:45:43.027Z,71.30
2018-06-20T12:48:11.583Z,73.00
2018-06-20T12:50:40.451Z,72.30
2018-06-20T12:53:19.117Z,70.40
2018-06-20T12:55:53.255Z,70.70
2018-06-20T12:58:23.726Z,71.70
2018-06-20T13:00:52.244Z,71.40
2018-06-20T13:03:22.737Z,71.20
2018-06-20T13:05:52.335Z,72.40
2018-06-20T13:08:21.337Z,73.60
2018-06-20T13:10:49.835Z,72.30
2018-06-20T13:13:21.154Z,70.10
2018-06-20T13:24:44.728Z,68.80
2018-06-20T13:27:18.466Z,67.80
2018-06-20T13:29:47.075Z,67.70
2018-06-20T13:32:33.123Z,67.10
2018-06-20T13:35:09.989Z,68.60
2018-06-20T13:37:44.238Z,63.10
2018-06-20T13:40:18.447Z,64.80
2018-06-20T13:42:54.373Z,66.30
2018-06-20T13:45:28.777Z,64.50
2018-06-20T13:48:03.486Z,64.50
2018-06-20T13:50:35.748Z,63.70
2018-06-20T13:53:06.241Z,64.80
2018-06-20T13:55:37.004Z,65.60
2018-06-20T13:58:11.234Z,63.80
2018-06-20T14:00:39.853Z,64.30
2018-06-20T14:03:10.357Z,62.90
2018-06-20T14:05:43.265Z,63.20
2018-06-20T14:08:14.214Z,61.60
2018-06-20T14:10:43.633Z,62.70
2018-06-20T14:13:13.458Z,63.70
2018-06-20T14:15:45.370Z,62.00
2018-06-20T14:18:14.921Z,57.90
2018-06-20T14:20:52.839Z,56.20
2018-06-20T14:23:24.543Z,57.10
2018-06-20T14:25:55.745Z,57.70
2018-06-20T14:28:26.595Z,54.50
2018-06-20T14:31:01.694Z,54.80
2018-06-20T14:33:37.631Z,54.70
2018-06-20T14:36:16.771Z,52.60
2018-06-20T14:38:54.761Z,51.30
2018-06-20T14:44:10.370Z,51.50
2018-06-20T14:46:41.838Z,52.00
2018-06-20T14:49:11.394Z,52.30
2018-06-20T14:51:41.095Z,54.50
2018-06-20T14:54:13.676Z,53.20
2018-06-20T14:56:45.281Z,52.50
2018-06-20T14:59:21.398Z,50.40
2018-06-20T15:01:54.965Z,50.90
2018-06-20T15:04:27.027Z,48.40
2018-06-20T15:07:02.714Z,49.10
2018-06-20T15:09:32.139Z,49.60
2018-06-20T15:12:01.817Z,49.40
2018-06-20T15:14:40.642Z,48.20
2018-06-20T15:17:25.072Z,47.80
2018-06-20T15:20:03.165Z,48.30
2018-06-20T15:25:39.593Z,47.30
2018-06-20T15:31:12.873Z,46.80
2018-06-20T15:34:05.785Z,44.60
2018-06-20T15:36:40.434Z,44.90
2018-06-20T15:39:17.604Z,44.00
2018-06-20T15:42:09.517Z,44.30
2018-06-20T15:44:53.903Z,44.00
2018-06-20T15:56:53.791Z,44.40
2018-06-20T15:59:25.931Z,44.00
2018-06-20T16:02:02.003Z,44.80
2018-06-20T16:04:32.201Z,43.30
2018-06-20T16:07:07.772Z,43.80
2018-06-20T16:09:42.398Z,45.90
2018-06-20T16:12:12.485Z,45.10
2018-06-20T16:14:41.803Z,43.90
2018-06-20T16:17:26.217Z,43.90
2018-06-20T16:20:00.634Z,42.70
2018-06-20T16:22:36.058Z,41.60
2018-06-20T16:25:10.980Z,42.20
2018-06-20T16:27:45.995Z,41.10
2018-06-20T16:30:20.638Z,40.40
2018-06-20T16:32:49.601Z,41.70
2018-06-20T16:35:19.278Z,40.90
2018-06-20T16:37:47.709Z,39.90
2018-06-20T16:40:16.042Z,41.00
2018-06-20T16:42:46.639Z,40.30
2018-06-20T16:45:15.803Z,39.80
2018-06-20T16:47:44.868Z,37.90
2018-06-20T16:50:13.378Z,37.20
2018-06-20T16:52:41.869Z,37.50
2018-06-20T16:55:10.499Z,38.50
2018-06-20T16:57:39.260Z,38.40
2018-06-20T17:00:07.633Z,39.20
2018-06-20T17:02:40.455Z,39.50
2018-06-20T17:05:09.563Z,37.90
2018-06-20T17:07:40.258Z,38.40
2018-06-20T17:10:12.953Z,40.00
2018-06-20T17:12:50.594Z,42.50
2018-06-20T17:16:24.314Z,44.00
2018-06-20T17:18:58.088Z,45.40
2018-06-20T17:21:31.835Z,47.60
2018-06-20T17:24:05.841Z,50.00
2018-06-20T17:26:34.194Z,50.70
2018-06-20T17:33:59.521Z,50.80
2018-06-20T17:36:27.969Z,51.10
2018-06-20T17:38:56.322Z,52.00
2018-06-20T17:41:24.880Z,51.60
2018-06-20T17:43:53.288Z,52.20
2018-06-20T17:46:21.706Z,52.60
2018-06-20T17:48:49.969Z,52.20
2018-06-20T17:51:18.799Z,53.20
2018-06-20T17:53:47.890Z,53.40
2018-06-20T17:56:16.564Z,54.00
2018-06-20T17:58:44.890Z,53.40
2018-06-20T18:01:13.481Z,53.20
2018-06-20T18:03:42.633Z,50.60
2018-06-20T18:06:16.287Z,50.90
2018-06-20T18:08:50.009Z,52.30
2018-06-20T18:13:24.789Z,52.00
2018-06-20T18:15:59.616Z,52.50
2018-06-20T18:18:35.169Z,51.10
2018-06-20T18:21:05.520Z,49.50
2018-06-20T18:23:37.725Z,48.70
2018-06-20T18:26:08.116Z,48.10
2018-06-20T18:28:37.810Z,47.40
2018-06-20T18:31:08.118Z,47.30
2018-06-20T18:33:36.691Z,47.60
2018-06-20T18:36:05.463Z,49.70
2018-06-20T18:38:34.123Z,49.50
2018-06-20T18:41:03.546Z,50.30
2018-06-20T18:43:37.446Z,52.50
2018-06-20T18:46:05.822Z,53.40
2018-06-20T18:48:34.297Z,54.50
2018-06-20T18:51:03.460Z,54.80
2018-06-20T18:53:34.536Z,55.90
2018-06-20T18:56:02.941Z,55.90
2018-06-20T18:58:37.158Z,56.30
2018-06-20T19:01:11.285Z,56.60
2018-06-20T19:03:45.234Z,57.20
2018-06-20T19:06:20.419Z,57.60
2018-06-20T19:08:50.229Z,58.50
2018-06-20T19:11:19.983Z,59.00
2018-06-20T19:13:49.221Z,59.10
2018-06-20T19:16:19.525Z,59.30
2018-06-20T19:18:48.138Z,59.80
2018-06-20T19:21:16.760Z,60.20
2018-06-20T19:26:15.515Z,61.00
2018-06-20T19:28:44.002Z,61.10
2018-06-20T19:31:20.573Z,61.70
2018-06-20T19:33:50.912Z,62.40
2018-06-20T19:36:19.274Z,63.10
2018-06-20T19:38:47.868Z,63.70
2018-06-20T19:41:16.241Z,64.60
2018-06-20T19:43:49.954Z,65.70
2018-06-20T19:46:18.333Z,66.60
2018-06-20T19:48:46.732Z,68.60
2018-06-20T19:51:15.209Z,69.20
2018-06-20T19:53:43.649Z,71.00
2018-06-20T19:56:12.109Z,74.30
2018-06-20T19:58:40.464Z,74.50
2018-06-20T20:01:08.948Z,78.20
2018-06-20T20:03:37.328Z,80.90
2018-06-20T20:06:05.705Z,82.60
2018-06-20T20:08:34.221Z,84.20
2018-06-20T20:11:02.533Z,85.70
2018-06-20T20:13:30.918Z,87.10
2018-06-20T20:16:01.392Z,87.00
2018-06-20T20:18:29.870Z,88.20
2018-06-20T20:20:58.232Z,89.30
2018-06-20T20:23:26.637Z,90.20
2018-06-20T20:25:54.983Z,90.30
2018-06-20T20:28:25.420Z,90.20
2018-06-20T20:30:53.872Z,90.50
2018-06-20T20:33:22.506Z,90.80
2018-06-20T20:35:51.919Z,91.40
2018-06-20T20:41:31.822Z,92.30
2018-06-20T20:44:00.344Z,92.80
2018-06-20T20:46:28.762Z,92.80
2018-06-20T20:48:57.242Z,93.10
2018-06-20T20:51:25.893Z,93.60
2018-06-20T20:53:54.406Z,93.70
2018-06-20T20:56:22.809Z,94.10
2018-06-20T20:58:51.493Z,94.40
2018-06-20T21:01:19.831Z,94.80
2018-06-20T21:03:49.856Z,95.00
2018-06-20T21:06:18.611Z,94.90
2018-06-20T21:08:47.122Z,95.80
2018-06-20T21:11:15.525Z,96.30
2018-06-20T21:13:44.082Z,96.80
2018-06-20T21:18:45.445Z,96.00
2018-06-20T21:21:13.903Z,96.60
2018-06-20T21:23:46.547Z,96.20
2018-06-20T21:26:14.908Z,96.50
2018-06-20T21:28:43.579Z,97.00
2018-06-20T21:31:11.949Z,97.30
2018-06-20T21:33:40.327Z,98.30
2018-06-20T21:36:08.697Z,98.50
2018-06-20T21:38:37.240Z,99.00
2018-06-20T21:41:05.708Z,99.30
2018-06-20T21:43:34.140Z,99.30
2018-06-20T21:46:02.530Z,99.40
2018-06-20T21:48:30.892Z,99.90
2018-06-20T21:50:59.259Z,99.90
2018-06-20T21:53:27.605Z,99.90
2018-06-20T21:55:55.991Z,99.90
2018-06-20T21:58:24.325Z,99.90
2018-06-20T22:00:52.662Z,99.90
2018-06-20T22:03:27.916Z,99.90
2018-06-20T22:05:56.367Z,99.90
2018-06-20T22:08:24.917Z,99.90
2018-06-20T22:10:53.374Z,99.90
2018-06-20T22:13:21.813Z,99.90
2018-06-20T22:15:50.214Z,99.90
2018-06-20T22:18:18.575Z,99.90
2018-06-20T22:20:46.972Z,99.90
2018-06-20T22:23:15.436Z,99.90
2018-06-20T22:25:43.778Z,99.90
2018-06-20T22:28:12.215Z,99.90
2018-06-20T22:30:40.615Z,99.90
2018-06-20T22:33:09.426Z,99.90
2018-06-20T22:38:07.089Z,99.90
2018-06-20T22:40:35.440Z,99.90
2018-06-20T22:43:03.860Z,99.90
2018-06-20T22:45:32.377Z,99.90
2018-06-20T22:48:01.070Z,99.90
2018-06-20T22:50:29.497Z,99.90
2018-06-20T22:52:57.904Z,99.90
2018-06-20T22:55:26.368Z,99.90
2018-06-20T22:57:54.814Z,99.90
2018-06-20T23:00:23.288Z,99.90
2018-06-20T23:02:51.751Z,99.90
2018-06-20T23:05:20.142Z,99.90
2018-06-20T23:07:48.655Z,99.90
2018-06-20T23:10:17.146Z,99.90
2018-06-20T23:12:45.747Z,99.90
2018-06-20T23:15:14.291Z,99.90
2018-06-20T23:17:42.847Z,99.90
2018-06-20T23:20:11.377Z,99.90
2018-06-20T23:22:41.044Z,99.90
2018-06-20T23:25:10.013Z,99.90
2018-06-20T23:27:38.722Z,99.90
2018-06-20T23:30:07.622Z,99.90
2018-06-20T23:32:36.436Z,99.90
2018-06-20T23:35:05.213Z,99.90
2018-06-20T23:37:34.816Z,99.90
2018-06-20T23:40:03.538Z,99.90
2018-06-20T23:42:32.624Z,99.90
2018-06-20T23:45:01.246Z,99.90
2018-06-20T23:47:29.950Z,99.90
2018-06-20T23:49:58.526Z,99.90
2018-06-20T23:52:27.143Z,99.90
2018-06-20T23:54:55.725Z,99.90
2018-06-20T23:57:24.515Z,99.90
2018-06-20T23:59:53.241Z,99.90
